White Marsh, Maryland
Current Conditions -  °F | °C
As of 6:54 AM on Tuesday 27 Jan 2015 (Local Time) from KMTN Reporting Station
Light Snow Light Snow  
Wind Chill: 23°   Ceiling: 3600
Heat Index: 30°   Visibility: 10mi
Dew Point: 25°   Wind: 8mph
Humidity: 80%   Direction: 310°NW
Pressure: 29.78"   Gusts: NA
Location:  39.39°N, 76.41°W
Report Text: KMTN 271154Z 31007KT 10SM -SN SCT019 BKN036 OVC041 M01/M04 A2978
Loading
Personal Weather Stations






























Interactive Weather Map New forecast layout! Learn more

10-Day Weather Forecast

Advertisements
Track Severe Weather on mobile